LZIB/BTS METAR and TAF weather

Enter ICAO airport designator
Station Type Date Time Source
LZIB METAR 2020/04/05 20:30 UTC NOAA

LZIB 052030Z 03003KT CAVOK 08/M02 Q1027


Station Type Date Time Source
LZIB Decoded METAR 2020/04/05 20:30 UTC NOAA

Bratislava Ivanka, Slovakia (LZIB) 48-12N 017-12E 142M
Apr 05, 2020 - 04:30 PM EDT / 2020.04.05 2030 UTC
Wind: from the NNE (030 degrees) at 3 MPH (3 KT):0
Visibility: greater than 7 mile(s):0
Temperature: 46 F (8 C)
Dew Point: 28 F (-2 C)
Relative Humidity: 49%
Pressure (altimeter): 30.33 in. Hg (1027 hPa)
ob: LZIB 052030Z 03003KT CAVOK 08/M02 Q1027
cycle: 20

Station Type Date Time Source
LZIB TAF 2020/04/05 18:37 UTC NOAA

TAF LZIB 051700Z 0518/0618 08005KT CAVOK
BECMG 0608/0610 16012KT
TEMPO 0612/0616 16015G25KT

Example: see airport list